Time;durP1;ratioP1;P1;durP2;ratioP2;P2;SDS_P1;SDS_P2;PMS_P1;PMS_P2;Temp;Humidity;BMP_temperature;BMP_pressure;BME280_temperature;BME280_humidity;BME280_pressure;Samples;Min_cycle;Max_cycle;Signal;HPM_P1;HPM_P2
2023/04/12 05:00:29;;;;;;;2.40;1.97;;;9.50;97.20;;;;;;1707975;28;20237;-68
2023/04/12 05:01:24;;;;;;;3.08;1.85;;;9.50;97.20;;;;;;1708247;29;20681;-67
2023/04/12 05:02:16;;;;;;;2.35;1.63;;;9.50;97.20;;;;;;1708183;29;20210;-67
2023/04/12 05:03:06;;;;;;;3.17;2.17;;;9.50;97.20;;;;;;1708209;29;20206;-67
2023/04/12 05:03:58;;;;;;;2.33;1.60;;;9.50;97.20;;;;;;1708265;29;20202;-67
2023/04/12 05:04:50;;;;;;;2.53;1.90;;;9.50;97.20;;;;;;1708117;29;20206;-67
2023/04/12 05:05:41;;;;;;;2.00;1.80;;;9.50;97.20;;;;;;1708229;29;20274;-67
2023/04/12 05:06:32;;;;;;;3.05;2.20;;;9.60;97.20;;;;;;1708323;29;20209;-67
2023/04/12 05:07:24;;;;;;;2.03;1.83;;;9.60;97.20;;;;;;1708141;29;20205;-67
2023/04/12 05:08:15;;;;;;;2.63;2.00;;;9.60;97.20;;;;;;1708212;29;20233;-67
2023/04/12 05:09:07;;;;;;;2.40;1.70;;;9.60;97.20;;;;;;1708131;29;20202;-67
2023/04/12 05:09:58;;;;;;;2.38;1.73;;;9.60;97.20;;;;;;1707793;29;20205;-67
2023/04/12 05:10:50;;;;;;;3.20;2.10;;;9.60;97.20;;;;;;1707762;28;20225;-66
2023/04/12 05:11:41;;;;;;;3.13;1.83;;;9.60;97.20;;;;;;1708021;29;20264;-67
2023/04/12 05:12:33;;;;;;;2.20;2.00;;;9.60;97.20;;;;;;1708213;29;20261;-67
2023/04/12 05:13:24;;;;;;;2.55;2.10;;;9.60;97.20;;;;;;1710637;28;20532;-67
2023/04/12 05:14:15;;;;;;;2.30;1.80;;;9.60;97.20;;;;;;1714772;28;20214;-67
2023/04/12 05:15:07;;;;;;;2.20;1.73;;;9.60;97.20;;;;;;1714700;28;20205;-67
2023/04/12 05:16:00;;;;;;;2.97;2.22;;;9.50;97.20;;;;;;1714705;28;20213;-68
2023/04/12 05:16:51;;;;;;;4.32;2.45;;;9.50;97.20;;;;;;1714801;28;20217;-69
2023/04/12 05:17:42;;;;;;;4.50;2.10;;;9.50;97.20;;;;;;1714632;28;20226;-67
2023/04/12 05:18:33;;;;;;;5.13;2.65;;;9.50;97.20;;;;;;1714745;28;20681;-67
2023/04/12 05:19:25;;;;;;;2.77;2.03;;;9.50;97.20;;;;;;1712063;28;20578;-69
2023/04/12 05:20:16;;;;;;;2.40;2.20;;;9.50;97.20;;;;;;1706892;28;20234;-69
2023/04/12 05:21:07;;;;;;;3.03;2.10;;;9.50;97.20;;;;;;1708160;29;20206;-67
2023/04/12 05:21:58;;;;;;;2.90;2.10;;;9.50;97.20;;;;;;1707799;28;20199;-67
2023/04/12 05:22:50;;;;;;;2.50;2.10;;;9.50;97.20;;;;;;1708087;29;20199;-67
2023/04/12 05:23:44;;;;;;;2.30;1.85;;;9.50;97.20;;;;;;1708025;29;20211;-68
2023/04/12 05:24:36;;;;;;;2.72;2.15;;;9.60;97.20;;;;;;1708053;29;20225;-67
2023/04/12 05:25:26;;;;;;;4.10;2.40;;;9.60;97.20;;;;;;1708105;28;20206;-67
2023/04/12 05:26:18;;;;;;;3.37;2.53;;;9.60;97.20;;;;;;1708134;29;20209;-67
2023/04/12 05:27:09;;;;;;;2.38;2.17;;;9.60;97.20;;;;;;1707982;28;20222;-67
2023/04/12 05:28:01;;;;;;;2.10;1.90;;;9.60;97.20;;;;;;1707996;29;20194;-67
2023/04/12 05:28:51;;;;;;;2.20;2.00;;;9.60;97.20;;;;;;1708111;29;20578;-68
2023/04/12 05:29:43;;;;;;;3.63;2.23;;;9.60;97.20;;;;;;1707589;29;20575;-67
2023/04/12 05:30:34;;;;;;;3.05;2.20;;;9.60;97.20;;;;;;1707607;29;20981;-67
2023/04/12 05:31:27;;;;;;;2.80;2.57;;;9.60;97.20;;;;;;1707785;28;20685;-68
2023/04/12 05:32:18;;;;;;;2.38;2.08;;;9.70;97.20;;;;;;1707315;29;20215;-67
2023/04/12 05:33:10;;;;;;;6.07;2.30;;;9.70;97.20;;;;;;1707078;29;20195;-67
2023/04/12 05:34:01;;;;;;;2.90;2.60;;;9.70;97.20;;;;;;1707928;29;20497;-67
2023/04/12 05:34:53;;;;;;;2.80;2.30;;;9.70;97.20;;;;;;1708113;29;20265;-67
2023/04/12 05:35:43;;;;;;;3.60;2.53;;;9.70;97.20;;;;;;1708012;29;20210;-67
2023/04/12 05:36:35;;;;;;;3.20;2.30;;;9.70;97.20;;;;;;1708075;29;20207;-67
2023/04/12 05:37:26;;;;;;;3.95;3.40;;;9.70;97.20;;;;;;1707891;29;20214;-67
2023/04/12 05:38:18;;;;;;;4.25;3.05;;;9.70;97.20;;;;;;1707970;28;20626;-68
2023/04/12 05:39:09;;;;;;;3.45;3.15;;;9.80;97.20;;;;;;1707955;29;20206;-67
2023/04/12 05:40:00;;;;;;;3.67;3.27;;;9.80;97.20;;;;;;1707665;29;20202;-68
2023/04/12 05:40:51;;;;;;;4.40;4.00;;;9.80;97.20;;;;;;1707897;29;20222;-67
2023/04/12 05:41:43;;;;;;;3.80;3.50;;;9.80;97.20;;;;;;1707463;29;20203;-67
2023/04/12 05:42:34;;;;;;;3.97;3.67;;;9.80;97.20;;;;;;1707890;29;20210;-67
2023/04/12 05:43:25;;;;;;;4.23;3.83;;;9.80;97.20;;;;;;1708035;29;20209;-67
2023/04/12 05:44:17;;;;;;;3.80;3.50;;;9.80;97.20;;;;;;1707919;29;20229;-67
2023/04/12 05:45:09;;;;;;;3.78;3.47;;;9.80;97.20;;;;;;1707926;28;20198;-67
2023/04/12 05:46:00;;;;;;;3.15;2.92;;;9.90;97.20;;;;;;1707943;29;20202;-67
2023/04/12 05:46:53;;;;;;;4.17;3.07;;;9.90;97.20;;;;;;1708044;29;20208;-67
2023/04/12 05:47:44;;;;;;;4.07;3.10;;;9.90;97.20;;;;;;1707943;29;20202;-67
2023/04/12 05:48:36;;;;;;;2.73;2.53;;;9.90;97.20;;;;;;1707973;29;20233;-68
2023/04/12 05:49:29;;;;;;;2.70;2.50;;;9.90;97.20;;;;;;1707889;29;20860;-67
2023/04/12 05:50:21;;;;;;;4.05;2.75;;;9.90;97.20;;;;;;1707491;28;20261;-67
2023/04/12 05:51:11;;;;;;;3.40;3.10;;;9.90;97.20;;;;;;1707981;29;20213;-67
2023/04/12 05:52:03;;;;;;;3.77;2.40;;;9.90;97.20;;;;;;1707853;29;20232;-67
2023/04/12 05:52:54;;;;;;;3.60;2.83;;;9.90;97.20;;;;;;1707920;29;20218;-67
2023/04/12 05:53:46;;;;;;;2.53;2.13;;;9.90;97.20;;;;;;1707575;29;20202;-67
2023/04/12 05:54:37;;;;;;;2.95;2.45;;;9.90;97.20;;;;;;1707940;29;20725;-67
2023/04/12 05:55:29;;;;;;;2.50;2.30;;;10.00;97.20;;;;;;1707879;29;20693;-68
2023/04/12 05:56:19;;;;;;;3.17;2.53;;;9.90;97.20;;;;;;1707806;29;20214;-67
2023/04/12 05:57:12;;;;;;;2.80;2.33;;;9.90;97.20;;;;;;1707838;29;20286;-67
2023/04/12 05:58:03;;;;;;;3.10;2.63;;;9.90;97.20;;;;;;1707817;29;20349;-67
2023/04/12 05:58:55;;;;;;;2.60;2.40;;;9.90;97.20;;;;;;1707915;29;20210;-67
2023/04/12 05:59:45;;;;;;;2.70;2.40;;;10.00;97.20;;;;;;1707815;29;20235;-67
2023/04/12 06:00:38;;;;;;;2.63;2.43;;;9.90;97.20;;;;;;1707728;28;20222;-67
2023/04/12 06:01:30;;;;;;;7.05;2.78;;;9.90;97.20;;;;;;1707836;29;20603;-67
2023/04/12 06:02:25;;;;;;;4.15;2.38;;;10.00;97.20;;;;;;1707840;29;20203;-67
2023/04/12 06:03:16;;;;;;;3.85;2.33;;;9.90;97.20;;;;;;1707803;29;20213;-67
2023/04/12 06:04:07;;;;;;;2.57;2.37;;;10.00;97.20;;;;;;1707905;29;20302;-67
2023/04/12 06:04:59;;;;;;;2.28;2.10;;;10.00;97.20;;;;;;1707874;29;20442;-68
2023/04/12 06:05:51;;;;;;;2.70;2.40;;;10.00;97.20;;;;;;1707538;29;20195;-68
2023/04/12 06:06:42;;;;;;;3.15;2.88;;;10.00;97.20;;;;;;1707815;29;20350;-67
2023/04/12 06:07:34;;;;;;;2.40;2.20;;;10.00;97.20;;;;;;1707879;29;20270;-67
2023/04/12 06:08:28;;;;;;;3.30;2.60;;;10.00;97.20;;;;;;1707855;28;20202;-67
2023/04/12 06:09:19;;;;;;;2.70;2.50;;;10.00;97.20;;;;;;1707432;28;20266;-67
2023/04/12 06:10:11;;;;;;;2.70;2.50;;;10.00;97.20;;;;;;1707011;29;20232;-67
2023/04/12 06:11:03;;;;;;;2.50;2.30;;;10.10;97.20;;;;;;1707809;28;20206;-67
2023/04/12 06:11:54;;;;;;;3.00;2.70;;;10.10;97.20;;;;;;1707703;29;20202;-67
2023/04/12 06:12:45;;;;;;;3.63;3.33;;;10.10;97.20;;;;;;1707784;29;20206;-67
2023/04/12 06:13:36;;;;;;;3.38;2.50;;;10.10;97.20;;;;;;1707722;28;20207;-67
2023/04/12 06:14:28;;;;;;;3.73;2.73;;;10.10;97.20;;;;;;1707787;29;20210;-67
2023/04/12 06:15:19;;;;;;;2.92;2.60;;;10.10;97.20;;;;;;1707810;29;20465;-68
2023/04/12 06:16:12;;;;;;;3.42;3.13;;;10.10;97.20;;;;;;1707873;29;20689;-68
2023/04/12 06:17:03;;;;;;;3.00;2.80;;;10.20;97.20;;;;;;1707787;28;20678;-68
2023/04/12 06:17:57;;;;;;;3.42;2.70;;;10.10;97.20;;;;;;1707725;29;20254;-68
2023/04/12 06:18:48;;;;;;;5.85;2.90;;;10.10;97.20;;;;;;1707862;28;20327;-67
2023/04/12 06:19:39;;;;;;;2.87;2.27;;;10.10;97.20;;;;;;1707492;29;20303;-67
2023/04/12 06:20:30;;;;;;;2.85;2.65;;;10.10;97.20;;;;;;1707432;28;20237;-68
2023/04/12 06:21:24;;;;;;;2.73;2.53;;;10.10;97.20;;;;;;1707736;29;20202;-68
2023/04/12 06:22:15;;;;;;;3.28;2.65;;;10.10;97.20;;;;;;1707734;29;20339;-68
2023/04/12 06:23:06;;;;;;;2.97;2.70;;;10.10;97.20;;;;;;1707777;29;20335;-67
2023/04/12 06:23:57;;;;;;;3.05;2.80;;;10.00;97.20;;;;;;1707702;29;20222;-68
2023/04/12 06:24:49;;;;;;;3.27;2.90;;;10.00;97.20;;;;;;1707752;29;20205;-67
2023/04/12 06:25:40;;;;;;;2.78;2.50;;;10.00;97.20;;;;;;1707692;29;20207;-68
2023/04/12 06:26:32;;;;;;;2.40;2.20;;;10.00;97.20;;;;;;1707793;29;20281;-67
2023/04/12 06:27:24;;;;;;;2.90;2.60;;;10.00;97.20;;;;;;1707663;29;20209;-68
2023/04/12 06:28:16;;;;;;;3.70;2.63;;;10.00;97.20;;;;;;1707704;29;20740;-68
2023/04/12 06:29:07;;;;;;;3.45;2.15;;;10.00;97.20;;;;;;1707840;29;20222;-68
2023/04/12 06:29:58;;;;;;;2.60;2.23;;;10.00;97.20;;;;;;1707531;29;20209;-68
2023/04/12 06:30:49;;;;;;;2.80;2.58;;;10.00;97.20;;;;;;1707285;28;20230;-68
2023/04/12 06:31:41;;;;;;;1.90;1.80;;;10.00;97.20;;;;;;1707563;29;20282;-68
2023/04/12 06:32:31;;;;;;;2.38;2.17;;;10.00;97.20;;;;;;1707679;29;20214;-68
2023/04/12 06:33:25;;;;;;;2.47;2.37;;;10.00;97.20;;;;;;1707743;29;20209;-68
2023/04/12 06:34:15;;;;;;;2.30;2.10;;;10.10;97.20;;;;;;1707690;29;20226;-67
2023/04/12 06:35:08;;;;;;;2.00;1.90;;;10.10;97.20;;;;;;1707724;28;20203;-68
2023/04/12 06:35:59;;;;;;;2.85;2.15;;;10.10;97.20;;;;;;1707693;29;20209;-68
2023/04/12 06:36:51;;;;;;;2.53;2.08;;;10.10;97.20;;;;;;1707726;28;20198;-68
2023/04/12 06:37:41;;;;;;;3.03;2.35;;;10.10;97.20;;;;;;1707559;28;20692;-68
2023/04/12 06:38:33;;;;;;;2.20;2.00;;;10.10;97.20;;;;;;1707665;28;20692;-68
2023/04/12 06:39:24;;;;;;;2.25;2.05;;;10.10;97.20;;;;;;1707578;29;20256;-68
2023/04/12 06:40:16;;;;;;;2.37;1.90;;;10.10;97.20;;;;;;1707232;29;20261;-68
2023/04/12 06:41:06;;;;;;;2.00;1.90;;;10.10;97.20;;;;;;1707617;28;20229;-68
2023/04/12 06:41:58;;;;;;;2.30;1.97;;;10.10;97.20;;;;;;1707491;29;20202;-68
2023/04/12 06:42:49;;;;;;;3.33;1.98;;;10.10;97.20;;;;;;1707667;29;20211;-68
2023/04/12 06:43:41;;;;;;;2.20;1.97;;;10.10;97.20;;;;;;1707734;28;20738;-68
2023/04/12 06:44:32;;;;;;;2.20;2.00;;;10.10;97.20;;;;;;1707343;29;20446;-68
2023/04/12 06:45:24;;;;;;;1.83;1.73;;;10.10;97.20;;;;;;1707592;29;20244;-68
2023/04/12 06:46:17;;;;;;;1.55;1.40;;;10.20;97.20;;;;;;1707605;29;20670;-68
2023/04/12 06:47:09;;;;;;;2.55;2.35;;;10.20;97.20;;;;;;1707666;29;20555;-68
2023/04/12 06:47:59;;;;;;;5.38;3.60;;;10.20;97.20;;;;;;1707531;29;20206;-68
2023/04/12 06:48:53;;;;;;;3.07;2.87;;;10.20;97.20;;;;;;1707595;29;20198;-68
2023/04/12 06:49:43;;;;;;;3.38;2.40;;;10.20;97.20;;;;;;1707635;29;20241;-67
2023/04/12 06:50:35;;;;;;;2.07;1.87;;;10.20;97.20;;;;;;1707280;28;20219;-68
2023/04/12 06:51:27;;;;;;;2.20;2.00;;;10.30;97.20;;;;;;1707651;29;20749;-68
2023/04/12 06:52:18;;;;;;;2.15;1.92;;;10.30;97.20;;;;;;1707575;29;20198;-68
2023/04/12 06:53:09;;;;;;;2.05;1.88;;;10.30;97.20;;;;;;1707610;29;20206;-68
2023/04/12 06:54:01;;;;;;;2.20;1.93;;;10.30;97.20;;;;;;1707612;29;20234;-68
2023/04/12 06:54:52;;;;;;;3.58;1.73;;;10.30;97.20;;;;;;1707814;29;20942;-68
2023/04/12 06:55:44;;;;;;;2.03;1.93;;;10.30;97.20;;;;;;1707504;29;20709;-68
2023/04/12 06:56:36;;;;;;;2.67;2.47;;;10.30;97.20;;;;;;1707610;29;20456;-68
2023/04/12 06:57:27;;;;;;;2.80;2.00;;;10.40;97.20;;;;;;1707518;29;20662;-68
2023/04/12 06:58:18;;;;;;;2.00;1.80;;;10.40;97.20;;;;;;1707482;29;20258;-68
2023/04/12 06:59:10;;;;;;;2.60;2.20;;;10.40;97.20;;;;;;1707526;29;20202;-67
2023/04/12 07:00:02;;;;;;;2.30;2.10;;;10.40;97.20;;;;;;1707180;29;20206;-68
2023/04/12 07:00:53;;;;;;;2.42;2.20;;;10.40;97.20;;;;;;1707062;28;20218;-68
2023/04/12 07:01:44;;;;;;;2.57;2.17;;;10.40;97.20;;;;;;1707411;29;20233;-67
2023/04/12 07:02:35;;;;;;;2.97;2.35;;;10.40;97.20;;;;;;1707560;29;20210;-67
2023/04/12 07:03:30;;;;;;;3.93;2.30;;;10.50;97.20;;;;;;1707550;29;20202;-68
2023/04/12 07:04:22;;;;;;;2.55;2.30;;;10.50;97.20;;;;;;1707351;29;20207;-68
2023/04/12 07:05:14;;;;;;;2.80;2.13;;;10.50;97.20;;;;;;1707665;29;20583;-68
2023/04/12 07:06:05;;;;;;;2.60;2.40;;;10.50;97.20;;;;;;1707479;29;20207;-68
2023/04/12 07:06:57;;;;;;;2.30;2.00;;;10.50;97.20;;;;;;1707516;29;20206;-68
2023/04/12 07:07:48;;;;;;;5.35;2.00;;;10.60;97.20;;;;;;1707468;29;20457;-68
2023/04/12 07:08:39;;;;;;;1.90;1.77;;;10.60;97.20;;;;;;1707510;29;20198;-68
2023/04/12 07:09:31;;;;;;;2.30;2.10;;;10.60;97.20;;;;;;1707482;29;20264;-67
2023/04/12 07:10:22;;;;;;;2.13;1.90;;;10.70;97.20;;;;;;1707000;28;20202;-68
2023/04/12 07:11:14;;;;;;;2.97;2.15;;;10.70;97.20;;;;;;1707559;29;20206;-68
2023/04/12 07:12:06;;;;;;;2.83;2.15;;;10.70;97.20;;;;;;1707351;29;20225;-68
2023/04/12 07:13:01;;;;;;;2.78;2.50;;;10.70;97.20;;;;;;1707414;29;20206;-68
2023/04/12 07:13:54;;;;;;;2.38;2.17;;;10.80;97.20;;;;;;1707596;29;20234;-68
2023/04/12 07:14:44;;;;;;;1.83;1.73;;;10.80;97.20;;;;;;1707408;29;20687;-68
2023/04/12 07:15:36;;;;;;;1.97;1.77;;;10.80;97.20;;;;;;1707442;29;20633;-68
2023/04/12 07:16:30;;;;;;;2.30;2.10;;;10.80;97.20;;;;;;1707378;29;20206;-68
2023/04/12 07:17:21;;;;;;;2.10;1.88;;;10.80;97.20;;;;;;1707182;29;20645;-68
2023/04/12 07:18:12;;;;;;;3.42;1.77;;;10.80;97.20;;;;;;1707380;29;20214;-67
2023/04/12 07:19:04;;;;;;;2.33;2.10;;;10.80;97.20;;;;;;1707358;29;20313;-68
2023/04/12 07:19:56;;;;;;;3.47;2.40;;;10.80;97.20;;;;;;1707164;29;20206;-68
2023/04/12 07:20:49;;;;;;;2.50;2.00;;;10.90;97.20;;;;;;1707116;28;20253;-68
2023/04/12 07:21:40;;;;;;;1.92;1.75;;;10.90;97.20;;;;;;1707290;28;20555;-68
2023/04/12 07:22:32;;;;;;;2.10;2.00;;;10.90;97.20;;;;;;1707433;29;20261;-68
2023/04/12 07:23:22;;;;;;;2.38;2.08;;;10.90;97.20;;;;;;1707302;29;20210;-68
2023/04/12 07:24:14;;;;;;;2.20;1.50;;;10.90;97.20;;;;;;1707438;29;20198;-68
2023/04/12 07:25:08;;;;;;;4.35;2.28;;;10.90;97.20;;;;;;1707293;29;20457;-68
2023/04/12 07:26:01;;;;;;;2.53;2.15;;;10.90;97.20;;;;;;1707509;28;20558;-68
2023/04/12 07:26:52;;;;;;;2.67;2.15;;;10.90;97.20;;;;;;1707427;29;20203;-68
2023/04/12 07:27:44;;;;;;;2.13;2.03;;;11.00;97.20;;;;;;1707332;29;20198;-68
2023/04/12 07:28:35;;;;;;;1.77;1.67;;;11.00;97.20;;;;;;1707355;29;20206;-68
2023/04/12 07:29:27;;;;;;;2.13;1.93;;;11.00;97.20;;;;;;1707306;29;20209;-68
2023/04/12 07:30:18;;;;;;;2.35;1.80;;;11.10;97.20;;;;;;1706547;28;20230;-68
2023/04/12 07:31:10;;;;;;;1.90;1.80;;;11.10;97.20;;;;;;1707293;29;20233;-67
2023/04/12 07:32:01;;;;;;;1.85;1.70;;;11.10;97.20;;;;;;1707023;29;20214;-67
2023/04/12 07:32:55;;;;;;;1.73;1.63;;;11.10;97.20;;;;;;1707357;29;20202;-67
2023/04/12 07:33:45;;;;;;;2.40;1.88;;;11.20;97.20;;;;;;1707252;29;20207;-67
2023/04/12 07:34:38;;;;;;;2.30;2.03;;;11.20;97.20;;;;;;1707278;29;20678;-68
2023/04/12 07:35:30;;;;;;;2.20;2.00;;;11.20;97.20;;;;;;1707282;29;20203;-67
2023/04/12 07:36:22;;;;;;;2.03;1.92;;;11.20;97.20;;;;;;1707355;29;20221;-68
2023/04/12 07:37:13;;;;;;;1.70;1.60;;;11.20;97.20;;;;;;1707323;29;20257;-67
2023/04/12 07:38:04;;;;;;;2.17;1.90;;;11.30;97.20;;;;;;1707244;29;20202;-67
2023/04/12 07:38:55;;;;;;;1.83;1.73;;;11.30;97.20;;;;;;1707217;29;20262;-68
2023/04/12 07:39:47;;;;;;;1.50;1.40;;;11.30;97.20;;;;;;1707248;29;20206;-68
2023/04/12 07:40:37;;;;;;;1.90;1.67;;;11.30;97.20;;;;;;1707010;28;20230;-67
2023/04/12 07:41:29;;;;;;;1.80;1.63;;;11.30;97.20;;;;;;1707101;29;20202;-67
2023/04/12 07:42:20;;;;;;;2.08;1.88;;;11.30;97.20;;;;;;1707197;29;20214;-67
2023/04/12 07:43:11;;;;;;;2.23;2.03;;;11.30;97.20;;;;;;1707325;29;20662;-67
2023/04/12 07:44:03;;;;;;;2.28;2.08;;;11.30;97.20;;;;;;1706973;29;20211;-67
2023/04/12 07:44:55;;;;;;;2.00;1.80;;;11.30;97.20;;;;;;1707360;29;20605;-68
2023/04/12 07:45:46;;;;;;;2.00;1.90;;;11.30;97.20;;;;;;1707160;29;20198;-67
2023/04/12 07:46:39;;;;;;;2.07;1.80;;;11.30;97.20;;;;;;1707198;28;20202;-67
2023/04/12 07:47:29;;;;;;;2.10;1.90;;;11.30;97.20;;;;;;1707226;29;20206;-67
2023/04/12 07:48:21;;;;;;;2.37;2.17;;;11.40;97.20;;;;;;1707187;29;20206;-67
2023/04/12 07:49:12;;;;;;;2.65;2.45;;;11.40;97.20;;;;;;1707322;28;20508;-67
2023/04/12 07:50:05;;;;;;;5.00;2.80;;;11.40;97.20;;;;;;1706856;29;20269;-67
2023/04/12 07:50:57;;;;;;;7.35;6.40;;;11.50;97.20;;;;;;1707146;29;20565;-68
2023/04/12 07:51:49;;;;;;;8.38;6.72;;;11.50;97.20;;;;;;1707132;28;20202;-67
2023/04/12 07:52:40;;;;;;;6.35;4.60;;;11.60;97.20;;;;;;1707199;29;20210;-68
2023/04/12 07:53:32;;;;;;;3.10;2.53;;;11.70;97.20;;;;;;1707257;29;20261;-67
2023/04/12 07:54:25;;;;;;;3.55;3.10;;;11.70;97.20;;;;;;1707143;29;20214;-67
2023/04/12 07:55:17;;;;;;;4.00;2.78;;;11.80;97.20;;;;;;1707249;29;20212;-67
2023/04/12 07:56:08;;;;;;;2.70;2.00;;;11.80;97.20;;;;;;1707187;28;20210;-67
2023/04/12 07:57:01;;;;;;;2.37;2.10;;;11.90;97.20;;;;;;1707249;29;20286;-68
2023/04/12 07:57:52;;;;;;;2.30;1.90;;;11.90;97.20;;;;;;1707238;28;20450;-68
2023/04/12 07:58:43;;;;;;;2.10;1.90;;;12.00;97.20;;;;;;1707120;29;20856;-67
2023/04/12 07:59:35;;;;;;;2.05;1.75;;;12.00;97.20;;;;;;1707340;29;20583;-67
2023/04/12 08:00:27;;;;;;;2.40;2.03;;;12.00;97.20;;;;;;1706569;28;20256;-67
2023/04/12 08:01:18;;;;;;;3.65;2.10;;;12.00;97.20;;;;;;1706000;29;20199;-67
2023/04/12 08:02:10;;;;;;;2.20;2.00;;;12.00;97.20;;;;;;1707161;29;20203;-67
2023/04/12 08:03:00;;;;;;;2.58;2.20;;;12.10;97.20;;;;;;1707148;28;20217;-67
2023/04/12 08:03:52;;;;;;;2.20;2.00;;;12.10;97.20;;;;;;1707310;29;20286;-67
2023/04/12 08:04:44;;;;;;;2.55;2.35;;;12.10;97.20;;;;;;1707241;28;20213;-69
2023/04/12 08:05:36;;;;;;;2.10;1.90;;;12.10;97.20;;;;;;1707221;29;20699;-67
2023/04/12 08:06:28;;;;;;;3.28;2.03;;;12.20;97.20;;;;;;1707137;29;20213;-67
2023/04/12 08:07:21;;;;;;;2.30;2.10;;;12.20;97.20;;;;;;1707189;29;20744;-67
2023/04/12 08:08:11;;;;;;;2.28;2.08;;;12.20;97.20;;;;;;1707237;29;20218;-67
2023/04/12 08:09:03;;;;;;;1.60;1.50;;;12.20;97.20;;;;;;1707187;29;20290;-67
2023/04/12 08:09:54;;;;;;;3.58;1.65;;;12.30;97.20;;;;;;1706980;28;20203;-67
2023/04/12 08:10:45;;;;;;;1.70;1.60;;;12.30;97.20;;;;;;1707021;28;20228;-67
2023/04/12 08:11:36;;;;;;;2.00;1.80;;;12.30;97.20;;;;;;1707004;29;20210;-67
2023/04/12 08:12:28;;;;;;;3.03;2.20;;;12.30;97.20;;;;;;1707152;29;20213;-67
2023/04/12 08:13:19;;;;;;;2.35;1.90;;;12.30;97.20;;;;;;1707093;29;20241;-70
2023/04/12 08:14:11;;;;;;;2.20;1.77;;;12.30;97.20;;;;;;1707266;28;20210;-67
2023/04/12 08:15:01;;;;;;;2.40;1.90;;;12.30;97.20;;;;;;1707114;29;20481;-67
2023/04/12 08:15:53;;;;;;;2.10;1.90;;;12.30;97.20;;;;;;1707184;29;20282;-67
2023/04/12 08:16:44;;;;;;;2.40;2.20;;;12.30;97.20;;;;;;1707103;29;20198;-67
2023/04/12 08:17:36;;;;;;;2.80;1.90;;;12.30;97.20;;;;;;1706995;29;20205;-67
2023/04/12 08:18:28;;;;;;;2.63;1.92;;;12.30;97.20;;;;;;1706999;29;20480;-68
2023/04/12 08:19:20;;;;;;;2.30;2.10;;;12.30;97.20;;;;;;1707129;29;20207;-67
2023/04/12 08:20:11;;;;;;;3.05;1.75;;;12.30;97.20;;;;;;1706789;29;20204;-68
2023/04/12 08:21:03;;;;;;;2.30;1.95;;;12.30;97.20;;;;;;1707124;29;20206;-67
2023/04/12 08:21:55;;;;;;;2.33;2.13;;;12.30;97.20;;;;;;1707129;29;20210;-67
2023/04/12 08:22:48;;;;;;;1.80;1.60;;;12.30;97.20;;;;;;1707097;29;20214;-67
2023/04/12 08:23:39;;;;;;;2.17;1.98;;;12.30;97.20;;;;;;1707059;29;20782;-68
2023/04/12 08:24:30;;;;;;;2.07;1.97;;;12.30;97.20;;;;;;1707117;29;20689;-67
2023/04/12 08:25:21;;;;;;;1.92;1.83;;;12.30;97.20;;;;;;1707060;29;20203;-67
2023/04/12 08:26:13;;;;;;;2.03;1.83;;;12.30;97.20;;;;;;1707150;29;20285;-70
2023/04/12 08:27:05;;;;;;;1.88;1.73;;;12.30;97.20;;;;;;1707027;29;20852;-67
2023/04/12 08:27:55;;;;;;;2.50;1.80;;;12.30;97.20;;;;;;1707144;29;20249;-67
2023/04/12 08:28:47;;;;;;;2.83;2.40;;;12.30;97.20;;;;;;1707137;29;20198;-67
2023/04/12 08:29:38;;;;;;;2.88;1.98;;;12.40;97.20;;;;;;1707091;29;20207;-67
2023/04/12 08:30:30;;;;;;;4.60;2.07;;;12.40;97.20;;;;;;1706554;28;20206;-67
2023/04/12 08:31:22;;;;;;;2.28;2.00;;;12.40;97.20;;;;;;1707081;29;20612;-67
2023/04/12 08:32:14;;;;;;;2.13;1.90;;;12.50;97.20;;;;;;1707147;28;20207;-67
2023/04/12 08:33:05;;;;;;;3.25;2.38;;;12.50;97.20;;;;;;1707723;29;20260;-67
2023/04/12 08:33:58;;;;;;;3.30;2.07;;;12.50;97.20;;;;;;1708102;29;20210;-67
2023/04/12 08:34:49;;;;;;;2.60;2.40;;;12.60;97.20;;;;;;1708417;28;20701;-67
2023/04/12 08:35:40;;;;;;;2.80;1.90;;;12.60;97.20;;;;;;1708486;29;20815;-67
2023/04/12 08:36:31;;;;;;;3.20;2.20;;;12.60;97.20;;;;;;1708425;29;20244;-68
2023/04/12 08:37:24;;;;;;;2.23;1.83;;;12.60;97.20;;;;;;1708329;29;20207;-67
2023/04/12 08:38:15;;;;;;;3.78;2.25;;;12.70;97.20;;;;;;1708341;29;20213;-69
2023/04/12 08:39:08;;;;;;;2.80;2.10;;;12.70;97.20;;;;;;1708318;29;20305;-68
2023/04/12 08:40:03;;;;;;;3.78;2.90;;;12.70;97.20;;;;;;1707982;28;20950;-68
2023/04/12 08:40:56;;;;;;;2.03;1.83;;;12.70;97.20;;;;;;1708464;29;20609;-68
2023/04/12 08:41:48;;;;;;;3.25;2.25;;;12.80;97.20;;;;;;1708355;29;20692;-68
2023/04/12 08:42:40;;;;;;;2.00;1.70;;;12.80;97.20;;;;;;1708361;29;20202;-68
2023/04/12 08:43:32;;;;;;;3.15;2.60;;;12.70;97.20;;;;;;1708425;29;20218;-68
2023/04/12 08:44:35;;;;;;;3.60;1.80;;;12.70;97.20;;;;;;1708403;28;20291;-68
2023/04/12 08:45:29;;;;;;;1.92;1.80;;;12.70;97.20;;;;;;1708397;28;20203;-68
2023/04/12 08:46:21;;;;;;;2.35;2.08;;;12.70;97.20;;;;;;1708449;29;20547;-68
2023/04/12 08:47:11;;;;;;;2.10;1.73;;;12.70;97.20;;;;;;1708280;29;20202;-68
2023/04/12 08:48:05;;;;;;;2.00;1.90;;;12.70;97.20;;;;;;1708321;28;20217;-68
2023/04/12 08:48:57;;;;;;;2.92;1.90;;;12.70;97.20;;;;;;1708326;28;20242;-68
2023/04/12 08:49:48;;;;;;;3.55;1.95;;;12.70;97.20;;;;;;1707842;29;20195;-68
2023/04/12 08:50:42;;;;;;;2.10;1.90;;;12.70;97.20;;;;;;1708099;29;20237;-68
2023/04/12 08:51:35;;;;;;;2.95;1.55;;;12.70;97.20;;;;;;1708279;28;20265;-68
2023/04/12 08:52:27;;;;;;;1.67;1.55;;;12.70;97.20;;;;;;1708261;28;20246;-68
2023/04/12 08:53:19;;;;;;;1.85;1.75;;;12.70;97.20;;;;;;1708325;29;20210;-68
2023/04/12 08:54:09;;;;;;;3.25;2.67;;;12.70;97.20;;;;;;1708244;28;20226;-68
2023/04/12 08:55:02;;;;;;;2.50;2.00;;;12.70;97.20;;;;;;1708288;29;20206;-68
2023/04/12 08:55:53;;;;;;;2.28;2.05;;;12.70;97.20;;;;;;1708471;28;20210;-67
2023/04/12 08:56:46;;;;;;;2.40;2.00;;;12.70;97.20;;;;;;1708264;28;20682;-68
2023/04/12 08:57:40;;;;;;;4.07;1.95;;;12.60;97.20;;;;;;1708302;28;20453;-68
2023/04/12 08:58:33;;;;;;;2.47;2.22;;;12.60;97.20;;;;;;1708247;29;20198;-67
2023/04/12 08:59:26;;;;;;;2.17;1.90;;;12.60;97.20;;;;;;1708162;29;20249;-68
2023/04/12 09:00:19;;;;;;;2.47;1.80;;;12.50;97.20;;;;;;1707888;28;20205;-68
2023/04/12 09:01:12;;;;;;;1.83;1.70;;;12.50;97.20;;;;;;1708302;29;20211;-68
2023/04/12 09:02:04;;;;;;;3.03;1.88;;;12.50;97.20;;;;;;1708187;29;20573;-68
2023/04/12 09:02:55;;;;;;;1.63;1.52;;;12.40;97.20;;;;;;1708255;29;20261;-67
2023/04/12 09:03:47;;;;;;;1.90;1.70;;;12.40;97.20;;;;;;1708345;29;20206;-68
2023/04/12 09:04:47;;;;;;;2.50;1.67;;;12.40;97.20;;;;;;1708306;28;20213;-68
2023/04/12 09:05:39;;;;;;;2.63;1.70;;;12.40;97.20;;;;;;1708311;29;20217;-68
2023/04/12 09:06:29;;;;;;;3.92;2.20;;;12.40;97.20;;;;;;1707915;29;20198;-68
2023/04/12 09:07:22;;;;;;;3.60;1.93;;;12.40;97.20;;;;;;1708185;29;20217;-68
2023/04/12 09:08:16;;;;;;;2.50;2.08;;;12.40;97.20;;;;;;1708180;29;20260;-68
2023/04/12 09:09:08;;;;;;;3.15;2.03;;;12.40;97.20;;;;;;1708175;29;20234;-67
2023/04/12 09:09:58;;;;;;;3.10;2.15;;;12.40;97.20;;;;;;1707885;29;20577;-68
2023/04/12 09:10:50;;;;;;;2.53;2.33;;;12.40;97.20;;;;;;1708091;28;20263;-68
2023/04/12 09:11:41;;;;;;;4.75;2.03;;;12.40;97.20;;;;;;1708240;29;20689;-68
2023/04/12 09:12:32;;;;;;;2.70;2.00;;;12.40;97.20;;;;;;1708117;29;20577;-68
2023/04/12 09:13:31;;;;;;;3.95;2.17;;;12.40;97.20;;;;;;1708288;29;20608;-69
2023/04/12 09:14:24;;;;;;;3.05;2.20;;;12.50;97.20;;;;;;1708303;29;20278;-68
2023/04/12 09:15:17;;;;;;;2.67;1.80;;;12.50;97.20;;;;;;1708273;29;20703;-68
2023/04/12 09:16:09;;;;;;;1.98;1.85;;;12.50;97.20;;;;;;1708235;29;20602;-68
2023/04/12 09:17:00;;;;;;;5.03;1.80;;;12.60;97.20;;;;;;1708146;29;20209;-68
2023/04/12 09:18:07;;;;;;;4.17;2.50;;;12.60;97.20;;;;;;1708217;29;20248;-68
2023/04/12 09:19:01;;;;;;;2.75;1.77;;;12.60;97.20;;;;;;1708236;29;20663;-68
2023/04/12 09:19:54;;;;;;;4.55;2.20;;;12.60;97.20;;;;;;1707904;29;20258;-68
2023/04/12 09:20:45;;;;;;;3.47;2.10;;;12.70;97.20;;;;;;1707998;28;20573;-69
2023/04/12 09:21:37;;;;;;;2.50;2.03;;;12.70;97.20;;;;;;1708056;29;20304;-68
2023/04/12 09:22:35;;;;;;;2.35;2.03;;;12.70;97.20;;;;;;1708094;29;20246;-68
2023/04/12 09:23:28;;;;;;;2.25;2.03;;;12.70;97.20;;;;;;1707911;28;20191;-69
2023/04/12 09:24:22;;;;;;;2.50;1.80;;;12.70;97.20;;;;;;1708110;28;20214;-68
2023/04/12 09:25:15;;;;;;;2.25;1.95;;;12.70;97.20;;;;;;1708191;28;20211;-68
2023/04/12 09:26:08;;;;;;;3.20;1.90;;;12.70;97.20;;;;;;1708004;28;20210;-68
2023/04/12 09:27:02;;;;;;;3.78;2.20;;;12.70;97.20;;;;;;1708021;29;20206;-68
2023/04/12 09:27:57;;;;;;;3.13;2.20;;;12.80;97.20;;;;;;1708145;29;20570;-68
2023/04/12 09:28:48;;;;;;;3.90;2.20;;;12.70;97.20;;;;;;1708061;29;20690;-68
2023/04/12 09:29:40;;;;;;;3.50;2.07;;;12.80;97.20;;;;;;1708038;29;20663;-68
2023/04/12 09:30:41;;;;;;;2.30;2.10;;;12.80;97.20;;;;;;1707608;29;20670;-68